.
WxDataArchive / Data Records for 2007-05-22
2007-05-21 May 2007 2007-05-23

Data Records for Tuesday, 22 May 2007

Time	Temp	Chill	HIndex	Humid	Dewpt	 Wind 	HiWind	WindDir	Rain 	Barom 
-----	----	-----	------	-----	-----	------	------	-------	-----	----- 
00:00	58.7	58.7	58.7	74	50.4	1	3	112	0.00	30.098 
00:05	58.6	58.6	58.6	75	50.7	1	4	90	0.00	30.096 
00:10	58.4	58.4	58.4	75	50.5	1	4	90	0.00	30.099 
00:15	58.4	58.4	58.4	75	50.5	1	4	112	0.00	30.100 
00:20	58.3	58.3	58.3	75	50.4	1	4	112	0.00	30.099 
00:25	58.1	58.1	58.1	76	50.6	1	3	112	0.00	30.098 
00:30	57.8	57.8	57.8	76	50.3	1	4	112	0.00	30.096 
00:35	57.6	57.6	57.6	76	50.1	1	5	90	0.00	30.096 
00:40	57.5	57.5	57.5	76	50.0	1	5	68	0.00	30.095 
00:45	57.5	57.5	57.5	76	50.0	2	4	90	0.00	30.093 
00:50	57.3	57.3	57.3	77	50.1	2	4	45	0.00	30.093 
00:55	57.2	57.2	57.2	77	50.1	2	4	68	0.00	30.094 
01:00	57.0	57.0	57.0	77	49.9	1	3	68	0.00	30.095 
01:05	56.7	56.7	56.7	77	49.6	1	3	68	0.00	30.092 
01:10	56.6	56.6	56.6	78	49.8	1	3	68	0.00	30.091 
01:15	56.5	56.5	56.5	78	49.7	1	3	68	0.00	30.089 
01:20	56.3	56.3	56.3	78	49.5	1	2	90	0.00	30.092 
01:25	56.2	56.2	56.2	78	49.4	1	3	90	0.00	30.090 
01:30	56.2	56.2	56.2	78	49.4	1	3	90	0.00	30.090 
01:35	56.0	56.0	56.0	79	49.6	0	2	90	0.00	30.091 
01:40	55.9	55.9	55.9	79	49.5	0	1	90	0.00	30.088 
01:45	55.7	55.7	55.7	79	49.3	0	2	90	0.00	30.086 
01:50	55.6	55.6	55.6	80	49.5	0	2	90	0.00	30.087 
01:55	55.4	55.4	55.4	80	49.3	0	2	90	0.00	30.087 
02:00	55.4	55.4	55.4	80	49.3	1	2	90	0.00	30.086 
02:05	55.3	55.3	55.3	80	49.2	0	1	90	0.00	30.086 
02:10	55.1	55.1	55.1	81	49.4	0	1	90	0.00	30.087 
02:15	54.8	54.8	54.8	81	49.1	0	2	90	0.00	30.088 
02:20	54.7	54.7	54.7	81	49.0	0	2	90	0.00	30.087 
02:25	54.5	54.5	54.5	82	49.1	0	1	90	0.00	30.088 
02:30	54.4	54.4	54.4	82	49.0	0	2	90	0.00	30.090 
02:35	54.2	54.2	54.2	82	48.8	1	2	90	0.00	30.090 
02:40	54.1	54.1	54.1	83	49.1	0	1	90	0.00	30.089 
02:45	53.9	53.9	53.9	83	48.9	0	1	90	0.00	30.088 
02:50	53.9	53.9	53.9	83	48.9	0	1	90	0.00	30.087 
02:55	53.8	53.8	53.8	83	48.8	0	2	90	0.00	30.088 
03:00	53.8	53.8	53.8	83	48.8	0	1	90	0.00	30.091 
03:05	53.6	53.6	53.6	84	48.9	0	1	90	0.00	30.092 
03:10	53.5	53.5	53.5	84	48.8	0	0	---	0.00	30.093 
03:15	53.3	53.3	53.3	84	48.6	0	2	90	0.00	30.092 
03:20	53.2	53.2	53.2	85	48.8	0	1	90	0.00	30.093 
03:25	53.1	53.1	53.1	86	49.0	0	1	90	0.00	30.093 
03:30	52.8	52.8	52.8	86	48.7	0	1	90	0.00	30.095 
03:35	52.8	52.8	52.8	86	48.7	0	1	90	0.00	30.095 
03:40	52.5	52.5	52.5	86	48.4	0	0	---	0.00	30.094 
03:45	52.5	52.5	52.5	86	48.4	0	1	90	0.00	30.097 
03:50	52.3	52.3	52.3	87	48.5	0	2	90	0.00	30.099 
03:55	52.2	52.2	52.2	87	48.4	0	1	90	0.00	30.099 
04:00	52.0	52.0	52.0	87	48.3	0	1	90	0.00	30.098 
04:05	52.0	52.0	52.0	88	48.6	0	1	90	0.00	30.098 
04:10	51.9	51.9	51.9	88	48.5	0	0	---	0.00	30.096 
04:15	51.7	51.7	51.7	88	48.3	0	1	90	0.00	30.096 
04:20	51.7	51.7	51.7	88	48.3	0	0	---	0.00	30.097 
04:25	51.4	51.4	51.4	88	48.0	0	0	---	0.00	30.099 
04:30	51.3	51.3	51.3	88	47.9	0	0	---	0.00	30.100 
04:35	51.1	51.1	51.1	89	48.0	0	0	---	0.00	30.101 
04:40	51.0	51.0	51.0	89	47.9	0	0	---	0.00	30.102 
04:45	50.8	50.8	50.8	90	48.0	0	0	---	0.00	30.104 
04:50	50.7	50.7	50.7	90	47.9	0	0	---	0.00	30.105 
04:55	50.5	50.5	50.5	90	47.7	0	0	---	0.00	30.104 
05:00	50.4	50.4	50.4	90	47.6	0	0	---	0.00	30.106 
05:05	50.2	50.2	50.2	91	47.7	0	0	---	0.00	30.110 
05:10	50.1	50.1	50.1	91	47.6	0	0	---	0.00	30.111 
05:15	49.9	49.9	49.9	91	47.4	0	0	---	0.00	30.114 
05:20	49.8	49.8	49.8	92	47.6	0	1	338	0.00	30.111 
05:25	49.9	49.9	49.9	92	47.7	0	1	338	0.00	30.111 
05:30	50.2	50.2	50.2	92	48.0	0	1	338	0.00	30.113 
05:35	50.2	50.2	50.2	92	48.0	0	0	---	0.00	30.116 
05:40	50.4	50.4	50.4	92	48.2	0	1	338	0.00	30.117 
05:45	50.4	50.4	50.4	92	48.2	0	1	338	0.00	30.117 
05:50	50.5	50.5	50.5	92	48.3	0	0	---	0.00	30.117 
05:55	50.7	50.7	50.7	92	48.5	0	1	338	0.00	30.118 
06:00	50.8	50.8	50.8	91	48.3	0	1	338	0.00	30.119 
06:05	51.1	51.1	51.1	91	48.6	0	1	338	0.00	30.122 
06:10	51.3	51.3	51.3	90	48.5	0	2	338	0.00	30.126 
06:15	51.7	51.7	51.7	90	48.9	0	1	338	0.00	30.128 
06:20	52.2	52.2	52.2	88	48.8	1	2	338	0.00	30.130 
06:25	52.8	52.8	52.8	86	48.7	0	2	338	0.00	30.130 
06:30	53.3	53.3	53.3	85	48.9	0	2	338	0.00	30.130 
06:35	53.9	53.9	53.9	84	49.2	0	2	338	0.00	30.131 
06:40	54.5	54.5	54.5	82	49.1	0	1	338	0.00	30.132 
06:45	55.1	55.1	55.1	81	49.4	0	2	338	0.00	30.131 
06:50	55.6	55.6	55.6	80	49.5	1	3	338	0.00	30.133 
06:55	56.2	56.2	56.2	79	49.8	1	2	338	0.00	30.136 
07:00	56.6	56.6	56.6	79	50.2	1	3	338	0.00	30.136 
07:05	57.2	57.2	57.2	77	50.1	0	2	338	0.00	30.143 
07:10	57.8	57.8	57.8	77	50.6	0	2	338	0.00	30.143 
07:15	58.3	58.3	58.3	76	50.8	1	2	338	0.00	30.144 
07:20	58.9	58.9	58.9	75	51.0	0	2	338	0.00	30.145 
07:25	59.3	59.3	59.3	75	51.4	1	2	338	0.00	30.146 
07:30	59.8	59.8	59.8	75	51.9	1	3	338	0.00	30.145 
07:35	60.1	60.1	60.1	74	51.8	1	3	338	0.00	30.145 
07:40	60.5	60.5	60.5	75	52.5	1	2	338	0.00	30.147 
07:45	61.2	61.2	61.2	73	52.5	0	3	338	0.00	30.148 
07:50	61.8	61.8	61.8	72	52.7	1	3	338	0.00	30.148 
07:55	62.4	62.4	62.4	73	53.6	1	4	90	0.00	30.150 
08:00	63.1	63.1	63.1	71	53.5	0	2	90	0.00	30.153 
08:05	63.7	63.7	63.7	70	53.7	0	2	90	0.00	30.154 
08:10	64.5	64.5	64.5	70	54.5	1	3	90	0.00	30.156 
08:15	65.0	65.0	65.0	69	54.6	1	2	90	0.00	30.154 
08:20	65.2	65.2	65.2	69	54.8	1	3	90	0.00	30.158 
08:25	65.6	65.6	65.6	69	55.1	0	2	90	0.00	30.156 
08:30	66.4	66.4	66.4	67	55.1	0	2	90	0.00	30.157 
08:35	67.4	67.4	67.4	66	55.6	1	2	90	0.00	30.158 
08:40	68.3	68.3	68.3	63	55.2	0	2	90	0.00	30.156 
08:45	68.9	68.9	68.9	65	56.6	0	2	90	0.00	30.155 
08:50	69.6	69.6	69.6	59	54.6	1	4	90	0.00	30.156 
08:55	69.9	69.9	69.9	62	56.3	0	3	90	0.00	30.154 
09:00	70.3	70.3	70.3	59	55.3	0	2	90	0.00	30.153 
09:05	71.1	71.1	71.1	57	55.1	1	3	90	0.00	30.154 
09:10	71.8	71.8	71.8	58	56.2	1	2	90	0.00	30.153 
09:15	72.3	72.3	72.3	58	56.7	0	1	90	0.00	30.153 
09:20	72.7	72.7	72.7	58	57.1	0	1	90	0.00	30.152 
09:25	73.2	73.2	73.2	56	56.5	0	1	90	0.00	30.152 
09:30	73.7	73.7	73.7	53	55.5	0	2	90	0.00	30.153 
09:35	74.4	74.4	74.4	52	55.6	2	3	90	0.00	30.153 
09:40	74.7	74.7	74.7	53	56.4	1	3	90	0.00	30.150 
09:45	75.1	75.1	77.7	50	55.2	1	4	90	0.00	30.148 
09:50	75.4	75.4	77.8	49	54.9	1	4	90	0.00	30.149 
09:55	76.3	76.3	78.2	52	57.4	0	1	90	0.00	30.146 
10:00	77.0	77.0	78.5	46	54.6	1	4	90	0.00	30.144 
10:05	77.6	77.6	78.9	49	56.9	0	1	90	0.00	30.143 
10:10	77.9	77.9	79.0	46	55.4	1	2	90	0.00	30.140 
10:15	78.5	78.5	79.2	44	54.7	1	3	225	0.00	30.140 
10:20	78.8	78.8	79.4	44	55.0	1	3	112	0.00	30.136 
10:25	79.4	79.4	79.5	39	52.3	1	3	135	0.00	30.136 
10:30	79.4	79.4	79.2	35	49.3	1	3	248	0.00	30.136 
10:35	79.9	79.9	79.5	35	49.8	1	3	248	0.00	30.135 
10:40	80.3	80.3	80.2	41	54.4	2	4	90	0.00	30.135 
10:45	80.3	80.3	79.7	35	50.1	2	4	90	0.00	30.136 
10:50	80.1	80.1	79.7	36	50.7	2	4	90	0.00	30.134 
10:55	79.9	79.9	79.5	35	49.8	2	6	90	0.00	30.134 
11:00	80.3	80.3	79.7	35	50.1	1	4	270	0.00	30.132 
11:05	81.1	81.1	80.4	36	51.6	1	3	270	0.00	30.131 
11:10	81.2	81.2	80.3	35	50.9	2	5	248	0.00	30.127 
11:15	81.4	81.4	80.1	31	47.8	2	7	90	0.00	30.123 
11:20	81.6	81.6	80.3	31	48.0	2	6	225	0.00	30.123 
11:25	81.8	81.8	80.3	29	46.4	2	7	112	0.00	30.122 
11:30	82.2	82.2	80.5	28	45.8	2	5	68	0.00	30.123 
11:35	82.6	82.6	80.8	28	46.2	2	4	90	0.00	30.121 
11:40	82.6	82.6	80.8	28	46.2	2	6	90	0.00	30.121 
11:45	82.8	82.8	80.8	27	45.4	1	5	270	0.00	30.119 
11:50	83.2	83.2	81.1	27	45.7	2	5	90	0.00	30.119 
11:55	83.4	83.4	81.2	26	44.9	2	3	90	0.00	30.119 
12:00	83.4	83.4	81.3	27	45.9	2	7	112	0.00	30.117 
12:05	83.4	83.4	81.4	28	46.8	2	5	90	0.00	30.120 
12:10	83.0	83.0	81.0	28	46.5	2	7	270	0.00	30.117 
12:15	83.4	83.4	81.3	27	45.9	2	5	112	0.00	30.112 
12:20	84.0	84.0	81.6	26	45.4	1	4	90	0.00	30.108 
12:25	84.1	84.1	81.8	27	46.5	2	6	90	0.00	30.106 
12:30	84.1	84.1	81.7	26	45.5	2	4	292	0.00	30.106 
12:35	84.0	84.0	81.7	27	46.4	3	6	112	0.00	30.106 
12:40	83.8	83.8	81.5	26	45.2	2	9	270	0.00	30.105 
12:45	84.0	84.0	81.6	25	44.4	2	6	270	0.00	30.104 
12:50	84.1	84.1	81.8	27	46.5	1	3	248	0.00	30.103 
12:55	84.7	84.7	82.5	29	48.9	2	5	90	0.00	30.103 
13:00	84.5	84.5	82.1	27	46.8	2	7	90	0.00	30.101 
13:05	84.5	84.5	82.0	25	44.8	2	4	90	0.00	30.096 
13:10	84.5	84.5	82.2	28	47.8	3	7	112	0.00	30.095 
13:15	84.7	84.7	82.5	29	48.9	2	6	270	0.00	30.095 
13:20	84.5	84.5	82.1	27	46.8	2	6	90	0.00	30.091 
13:25	84.7	84.7	82.1	25	45.0	1	5	270	0.00	30.090 
13:30	84.9	84.9	82.5	27	47.2	1	5	68	0.00	30.089 
13:35	85.3	85.3	82.7	26	46.5	2	4	112	0.00	30.089 
13:40	85.3	85.3	82.9	28	48.5	2	5	112	0.00	30.088 
13:45	85.3	85.3	82.7	26	46.5	2	6	90	0.00	30.087 
13:50	85.5	85.5	82.9	26	46.7	2	7	90	0.00	30.086 
13:55	85.7	85.7	83.0	26	46.8	2	6	112	0.00	30.086 
14:00	86.1	86.1	83.6	28	49.1	1	4	90	0.00	30.086 
14:05	86.3	86.3	83.2	22	42.9	2	5	90	0.00	30.083 
14:10	86.3	86.3	83.5	25	46.3	2	6	68	0.00	30.081 
14:15	86.1	86.1	83.5	27	48.2	1	5	292	0.00	30.080 
14:20	86.1	86.1	83.1	23	43.9	2	5	270	0.00	30.079 
14:25	86.3	86.3	83.5	25	46.3	3	9	90	0.00	30.079 
14:30	86.3	86.3	83.2	22	42.9	3	11	112	0.00	30.077 
14:35	86.3	86.3	83.4	24	45.2	2	9	90	0.00	30.077 
14:40	86.3	86.3	83.3	23	44.1	2	5	68	0.00	30.075 
14:45	86.3	86.3	83.6	26	47.3	2	6	90	0.00	30.073 
14:50	86.7	86.7	83.7	24	45.6	2	9	112	0.00	30.073 
14:55	86.7	86.7	83.5	22	43.3	3	9	112	0.00	30.073 
15:00	86.7	86.7	83.7	24	45.6	2	6	112	0.00	30.072 
15:05	87.0	87.0	83.9	23	44.7	2	5	90	0.00	30.073 
15:10	86.7	86.7	83.4	20	40.8	3	6	90	0.00	30.073 
15:15	86.7	86.7	83.6	23	44.4	2	4	68	0.00	30.071 
15:20	86.7	86.7	83.5	22	43.3	2	4	90	0.00	30.069 
15:25	86.7	86.7	83.5	22	43.3	2	5	248	0.00	30.068 
15:30	86.5	86.5	83.4	22	43.1	2	5	112	0.00	30.068 
15:35	86.5	86.5	83.4	22	43.1	2	6	90	0.00	30.069 
15:40	86.5	86.5	83.4	22	43.1	2	7	90	0.00	30.068 
15:45	87.0	87.0	83.8	22	43.5	2	5	90	0.00	30.064 
15:50	87.0	87.0	84.0	24	45.8	2	6	112	0.00	30.064 
15:55	87.2	87.2	84.3	25	47.1	2	12	112	0.00	30.064 
16:00	86.7	86.7	83.5	22	43.3	3	6	90	0.00	30.066 
16:05	86.5	86.5	83.6	25	46.5	2	5	248	0.00	30.067 
16:10	86.3	86.3	83.3	23	44.1	3	7	270	0.00	30.065 
16:15	86.3	86.3	83.3	23	44.1	1	4	315	0.00	30.067 
16:20	86.5	86.5	83.6	25	46.5	1	4	0	0.00	30.069 
16:25	86.5	86.5	83.5	24	45.4	2	5	68	0.00	30.072 
16:30	86.5	86.5	83.6	25	46.5	1	3	45	0.00	30.067 
16:35	86.5	86.5	83.5	24	45.4	2	4	112	0.00	30.064 
16:40	86.5	86.5	83.8	27	48.5	2	8	90	0.00	30.062 
16:45	86.3	86.3	83.8	28	49.3	2	4	90	0.00	30.061 
16:50	86.3	86.3	83.5	25	46.3	2	6	90	0.00	30.062 
16:55	86.1	86.1	83.4	26	47.2	2	4	112	0.00	30.061 
17:00	85.7	85.7	83.0	26	46.8	2	5	112	0.00	30.062 
17:05	85.5	85.5	83.0	27	47.7	3	6	90	0.00	30.061 
17:10	85.3	85.3	82.7	26	46.5	3	7	90	0.00	30.062 
17:15	85.1	85.1	82.6	27	47.3	2	6	90	0.00	30.063 
17:20	85.1	85.1	82.7	28	48.3	1	4	90	0.00	30.062 
17:25	84.9	84.9	82.6	28	48.1	1	3	90	0.00	30.064 
17:30	84.7	84.7	82.3	27	47.0	1	4	112	0.00	30.062 
17:35	84.7	84.7	82.4	28	48.0	2	6	90	0.00	30.062 
17:40	84.7	84.7	82.4	28	48.0	3	6	90	0.00	30.062 
17:45	84.7	84.7	82.3	27	47.0	2	5	90	0.00	30.062 
17:50	84.5	84.5	82.1	27	46.8	1	4	90	0.00	30.063 
17:55	84.5	84.5	82.1	27	46.8	1	4	90	0.00	30.063 
18:00	84.3	84.3	82.1	28	47.6	1	5	90	0.00	30.063 
18:05	84.1	84.1	81.9	28	47.4	2	7	112	0.00	30.059 
18:10	84.0	84.0	81.8	28	47.4	1	3	135	0.00	30.059 
18:15	83.8	83.8	81.6	27	46.2	2	4	90	0.00	30.059 
18:20	83.8	83.8	81.6	27	46.2	2	4	90	0.00	30.060 
18:25	83.6	83.6	81.8	31	49.7	0	1	135	0.00	30.061 
18:30	83.4	83.4	81.6	31	49.6	1	3	135	0.00	30.063 
18:35	83.0	83.0	81.2	30	48.3	2	4	90	0.00	30.065 
18:40	83.0	83.0	81.2	30	48.3	2	5	90	0.00	30.064 
18:45	83.0	83.0	81.2	30	48.3	1	4	112	0.00	30.066 
18:50	83.0	83.0	81.3	31	49.2	2	6	135	0.00	30.070 
18:55	82.6	82.6	80.9	30	48.0	1	4	112	0.00	30.069 
19:00	82.4	82.4	80.9	31	48.7	1	3	112	0.00	30.072 
19:05	82.2	82.2	80.7	31	48.5	1	4	112	0.00	30.067 
19:10	82.0	82.0	80.6	31	48.4	1	3	112	0.00	30.066 
19:15	81.8	81.8	80.4	31	48.2	1	4	135	0.00	30.068 
19:20	81.6	81.6	80.4	32	48.9	1	3	112	0.00	30.068 
19:25	81.2	81.2	80.1	32	48.5	1	2	112	0.00	30.068 
19:30	81.1	81.1	80.0	32	48.4	1	4	90	0.00	30.068 
19:35	80.9	80.9	80.0	33	49.1	1	2	90	0.00	30.069 
19:40	80.5	80.5	79.7	33	48.7	1	3	90	0.00	30.069 
19:45	80.3	80.3	79.5	32	47.7	1	2	112	0.00	30.071 
19:50	80.1	80.1	79.5	34	49.2	0	1	158	0.00	30.072 
19:55	79.6	79.6	79.4	36	50.3	0	1	158	0.00	30.072 
20:00	78.8	78.8	79.0	37	50.3	0	1	158	0.00	30.073 
20:05	78.1	78.1	78.6	37	49.7	0	2	158	0.00	30.070 
20:10	77.7	77.7	78.4	37	49.3	0	1	158	0.00	30.069 
20:15	77.4	77.4	78.3	38	49.8	0	1	158	0.00	30.071 
20:20	77.0	77.0	78.2	39	50.1	0	1	158	0.00	30.071 
20:25	76.7	76.7	78.1	39	49.9	0	1	158	0.00	30.072 
20:30	76.1	76.1	77.9	41	50.7	0	0	---	0.00	30.074 
20:35	75.8	75.8	77.8	42	51.1	0	1	158	0.00	30.076 
20:40	75.3	75.3	77.7	43	51.2	0	1	158	0.00	30.078 
20:45	74.7	74.7	74.7	42	50.1	0	1	158	0.00	30.081 
20:50	74.4	74.4	74.4	44	51.0	0	1	158	0.00	30.083 
20:55	74.0	74.0	74.0	44	50.7	0	1	158	0.00	30.084 
21:00	74.0	74.0	74.0	43	50.1	0	2	158	0.00	30.085 
21:05	74.2	74.2	74.2	43	50.2	0	1	158	0.00	30.082 
21:10	74.0	74.0	74.0	45	51.3	0	1	158	0.00	30.082 
21:15	73.9	73.9	73.9	44	50.6	0	1	158	0.00	30.083 
21:20	73.7	73.7	73.7	44	50.4	0	1	158	0.00	30.083 
21:25	73.7	73.7	73.7	45	51.0	0	0	---	0.00	30.085 
21:30	73.3	73.3	73.3	45	50.7	0	1	158	0.00	30.085 
21:35	73.2	73.2	73.2	45	50.6	0	1	158	0.00	30.086 
21:40	73.0	73.0	73.0	46	51.0	0	0	---	0.00	30.086 
21:45	72.7	72.7	72.7	46	50.7	0	0	---	0.00	30.089 
21:50	72.3	72.3	72.3	48	51.5	0	0	---	0.00	30.091 
21:55	71.8	71.8	71.8	50	52.1	0	0	---	0.00	30.095 
22:00	71.3	71.3	71.3	50	51.7	0	0	---	0.00	30.096 
22:05	70.8	70.8	70.8	52	52.3	0	0	---	0.00	30.095 
22:10	70.1	70.1	70.1	52	51.6	0	0	---	0.00	30.095 
22:15	69.6	69.6	69.6	52	51.2	0	0	---	0.00	30.095 
22:20	69.3	69.3	69.3	55	52.4	0	0	---	0.00	30.097 
22:25	68.8	68.8	68.8	56	52.5	0	0	---	0.00	30.098 
22:30	68.3	68.3	68.3	56	52.0	0	0	---	0.00	30.097 
22:35	67.9	67.9	67.9	58	52.6	0	0	---	0.00	30.098 
22:40	67.4	67.4	67.4	58	52.1	0	0	---	0.00	30.098 
22:45	67.3	67.3	67.3	60	52.9	0	1	158	0.00	30.098 
22:50	66.9	66.9	66.9	60	52.6	0	0	---	0.00	30.098 
22:55	66.6	66.6	66.6	60	52.3	0	0	---	0.00	30.098 
23:00	66.4	66.4	66.4	61	52.5	0	0	---	0.00	30.096 
23:05	66.3	66.3	66.3	63	53.3	0	0	---	0.00	30.095 
23:10	66.0	66.0	66.0	63	53.0	0	0	---	0.00	30.094 
23:15	65.6	65.6	65.6	63	52.7	0	0	---	0.00	30.094 
23:20	65.6	65.6	65.6	65	53.5	0	0	---	0.00	30.096 
23:25	65.5	65.5	65.5	65	53.4	0	0	---	0.00	30.097 
23:30	65.3	65.3	65.3	63	52.4	0	0	---	0.00	30.096 
23:35	65.2	65.2	65.2	64	52.7	0	0	---	0.00	30.096 
23:40	65.2	65.2	65.2	63	52.3	0	0	---	0.00	30.097 
23:45	65.0	65.0	65.0	64	52.5	0	0	---	0.00	30.096 
23:50	64.8	64.8	64.8	64	52.3	0	0	---	0.00	30.096 
23:55	64.7	64.7	64.7	65	52.7	0	0	---	0.00	30.093 

CoCoRaHS
IN-AL-39
A2 Web Hosting
Creative Commons License
GoDaddy
Look for:

loaded 2017-10-17 00:07:49 • last modified 2010-11-18 10:43:29
Privacy PolicyDisclaimer
• wx.awcolley.com is powered by PmWiki v.2002016 •
• all content (unless otherwise noted) © 2017 A W Colley